Tuesday, January 17, 2017, 3:51 AM EST

KGED, Georgetown Sussex Co Airport

Location: Georgetown, DE, United States Lat: 38.683
Local Time: 3:51 AM EST ( 8:51 GMT) Lon: -75.367
Time Zone: US/Eastern Elev: 52 ft

Show me the last for .
Show Decoded

2017-01-17 03:12 METAR KGED 170812Z AUTO 00000KT 10SM BKN013 OVC020 05/02 A3027 RMK AO2 T00500017
                 =
2017-01-17 02:54 METAR KGED 170754Z AUTO 21004KT 10SM BKN019 OVC070 05/02 A3027 RMK AO2 RAB20E33
                 SLP251 P0000 T00500017 =
2017-01-17 02:41 METAR KGED 170741Z AUTO 19004KT 10SM SCT017 OVC070 05/02 A3027 RMK AO2 RAB20E33
                 P0000 T00500017 =
2017-01-17 01:54 METAR KGED 170654Z AUTO 20003KT 10SM BKN017 OVC100 06/01 A3028 RMK AO2 SLP252
                 T00560006 =
2017-01-17 01:46 METAR KGED 170646Z AUTO 20004KT 10SM BKN019 OVC100 06/01 A3027 RMK AO2 T00560006
                 =
2017-01-17 01:36 METAR KGED 170636Z AUTO 21003KT 10SM SCT019 OVC100 06/01 A3028 RMK AO2 T00560006
                 =
2017-01-17 00:54 METAR KGED 170554Z AUTO 21005KT 10SM OVC022 06/01 A3030 RMK AO2 SLP261 T00560006
                 10056 20050 58019 =
2017-01-16 23:54 METAR KGED 170454Z AUTO 19003KT 10SM OVC024 06/01 A3032 RMK AO2 SLP268 T00560006
                 400721022 =
2017-01-16 22:54 METAR KGED 170354Z AUTO 00000KT 10SM OVC027 06/00 A3035 RMK AO2 SLP276 T00560000
                 =
2017-01-16 21:54 METAR KGED 170254Z AUTO 00000KT 10SM OVC024 05/00 A3036 RMK AO2 SLP280 T00500000
                 56009 =
2017-01-16 20:54 METAR KGED 170154Z AUTO 00000KT 10SM OVC026 05/M01 A3037 RMK AO2 SLP284
                 T00501006 =
2017-01-16 19:54 METAR KGED 170054Z AUTO 13004KT 10SM OVC028 05/M01 A3037 RMK AO2 SLP285
                 T00501006 =
2017-01-16 19:30 METAR KGED 170030Z AUTO 12004KT 10SM OVC029 05/M01 A3037 RMK AO2 T00501006 =
2017-01-16 18:54 METAR KGED 162354Z AUTO 00000KT 10SM OVC031 05/M01 A3039 RMK AO2 SLP290
                 T00501006 10072 20050 57004 =
2017-01-16 17:54 METAR KGED 162254Z AUTO 11005KT 10SM OVC035 06/M01 A3039 RMK AO2 SLP290
                 T00561011 =
2017-01-16 16:54 METAR KGED 162154Z AUTO 23003KT 10SM BKN036 OVC110 07/M03 A3040 RMK AO2 SLP293
                 T00671033 =
2017-01-16 15:54 METAR KGED 162054Z AUTO 21004KT 10SM BKN100 OVC120 07/M03 A3040 RMK AO2 SLP293
                 T00671033 56014 =
2017-01-16 14:54 METAR KGED 161954Z AUTO 21004KT 10SM FEW031 OVC100 07/M04 A3040 RMK AO2 SLP294
                 T00671039 =
2017-01-16 13:54 METAR KGED 161854Z AUTO VRB03KT 10SM BKN031 BKN100 07/M04 A3040 RMK AO2 SLP295
                 T00721039 =
2017-01-16 12:54 METAR KGED 161754Z AUTO 34004KT 10SM OVC030 07/M04 A3044 RMK AO2 SLP307
                 T00671039 10067 21022 56023 =
2017-01-16 11:54 METAR KGED 161654Z AUTO 00000KT 10SM CLR 06/M03 A3045 RMK AO2 SLP311 T00561028 =
2017-01-16 10:54 METAR KGED 161554Z AUTO 00000KT 10SM CLR 04/M03 A3049 RMK AO2 SLP326 T00391033 =
2017-01-16 09:54 METAR KGED 161454Z AUTO 00000KT 10SM CLR 03/M03 A3051 RMK AO2 SLP330 T00331028
                 53015 =
2017-01-16 08:54 METAR KGED 161354Z AUTO 05004KT 10SM CLR 01/M02 A3048 RMK AO2 SLP323 T00061022 =
2017-01-16 07:54 METAR KGED 161254Z AUTO 02003KT 6SM BR CLR M02/M03 A3047 RMK AO2 SLP318
                 T10171033 =
2017-01-16 06:54 METAR KGED 161154Z AUTO 00000KT 10SM CLR M01/M03 A3046 RMK AO2 SLP315 T10111033
                 10022 21017 51007 =
2017-01-16 05:54 METAR KGED 161054Z AUTO 00000KT 10SM CLR M01/M03 A3046 RMK AO2 SLP315 T10061028
                 =
2017-01-16 04:54 METAR KGED 160954Z AUTO 00000KT 10SM CLR M01/M03 A3046 RMK AO2 SLP313 T10061028
                 =
2017-01-16 03:54 METAR KGED 160854Z AUTO 00000KT 10SM CLR 00/M02 A3044 RMK AO2 SLP309 T00001022
                 50003 =

Support USWX by starting your Amazon purchase here.